UNTT/TOF METAR and TAF weather

Enter ICAO airport designator
Station Type Date Time Source
UNTT METAR 2020/10/20 16:30 UTC NOAA

UNTT 201630Z 21004MPS 9999 BKN047 05/01 Q1016 R21/250150 NOSIG RMK QFE747


Station Type Date Time Source
UNTT Decoded METAR 2020/10/20 16:30 UTC NOAA

Station name not available
Oct 20, 2020 - 12:30 PM EDT / 2020.10.20 1630 UTC
Wind: from the SSW (210 degrees) at 9 MPH (8 KT):0
Visibility: greater than 7 mile(s):0
Sky conditions: mostly cloudy
Temperature: 41 F (5 C)
Dew Point: 33 F (1 C)
Relative Humidity: 75%
Pressure (altimeter): 30.00 in. Hg (1016 hPa)
ob: UNTT 201630Z 21004MPS 9999 BKN047 05/01 Q1016 R21/250150 NOSIG RMK QFE747
cycle: 16

Station Type Date Time Source
UNTT TAF UTC NOAA

Error!

Example: see airport list